createdAt,value
2022-11-22T00:01:18.368Z,7.34
2022-11-22T00:03:46.364Z,7.40
2022-11-22T00:06:14.488Z,7.35
2022-11-22T00:08:42.714Z,7.36
2022-11-22T00:11:12.195Z,7.34
2022-11-22T00:13:40.160Z,7.28
2022-11-22T00:16:08.304Z,7.49
2022-11-22T00:18:36.306Z,7.38
2022-11-22T00:21:08.813Z,7.50
2022-11-22T00:23:36.800Z,7.60
2022-11-22T00:26:07.060Z,7.59
2022-11-22T00:28:36.584Z,7.51
2022-11-22T00:31:04.731Z,7.53
2022-11-22T00:33:32.903Z,7.58
2022-11-22T00:36:01.083Z,7.67
2022-11-22T00:38:30.619Z,7.65
2022-11-22T00:40:58.543Z,7.48
2022-11-22T00:43:26.488Z,7.55
2022-11-22T00:45:55.940Z,7.56
2022-11-22T00:48:23.848Z,7.68
2022-11-22T00:50:51.807Z,7.73
2022-11-22T00:53:20.119Z,7.83
2022-11-22T00:55:48.061Z,7.85
2022-11-22T00:58:15.994Z,7.83
2022-11-22T01:00:44.359Z,7.78
2022-11-22T01:03:14.877Z,7.80
2022-11-22T01:05:42.750Z,7.95
2022-11-22T01:08:11.190Z,8.04
2022-11-22T01:10:39.691Z,7.85
2022-11-22T01:13:07.835Z,7.88
2022-11-22T01:15:37.095Z,7.91
2022-11-22T01:18:05.661Z,7.97
2022-11-22T01:20:35.047Z,7.97
2022-11-22T01:23:02.983Z,7.95
2022-11-22T01:25:31.014Z,7.83
2022-11-22T01:27:59.016Z,7.84
2022-11-22T01:30:27.051Z,7.89
2022-11-22T01:32:55.093Z,7.91
2022-11-22T01:35:23.130Z,7.95
2022-11-22T01:37:52.561Z,7.95
2022-11-22T01:40:20.771Z,7.91
2022-11-22T01:42:52.486Z,7.86
2022-11-22T01:45:43.912Z,7.92
2022-11-22T01:48:23.515Z,7.91
2022-11-22T01:50:57.097Z,7.80
2022-11-22T01:53:30.753Z,7.62
2022-11-22T01:56:01.054Z,7.50
2022-11-22T01:58:35.419Z,7.51
2022-11-22T02:01:03.845Z,7.61
2022-11-22T02:03:34.291Z,7.61
2022-11-22T02:06:12.073Z,7.53
2022-11-22T02:08:50.809Z,7.59
2022-11-22T02:11:20.773Z,7.60
2022-11-22T02:13:49.817Z,7.67
2022-11-22T02:16:18.001Z,7.55
2022-11-22T02:18:46.114Z,7.64
2022-11-22T02:21:14.169Z,7.70
2022-11-22T02:23:57.831Z,7.82
2022-11-22T02:26:29.472Z,7.66
2022-11-22T02:29:02.196Z,7.50
2022-11-22T02:31:47.160Z,7.44
2022-11-22T02:34:15.613Z,7.34
2022-11-22T02:36:47.391Z,7.32
2022-11-22T02:39:18.681Z,7.26
2022-11-22T02:41:49.199Z,7.34
2022-11-22T02:44:18.927Z,7.24
2022-11-22T02:46:48.966Z,7.20
2022-11-22T02:49:21.245Z,7.09
2022-11-22T02:51:51.243Z,7.17
2022-11-22T02:54:19.935Z,6.99
2022-11-22T02:56:49.731Z,7.10
2022-11-22T02:59:17.655Z,7.04
2022-11-22T03:01:47.739Z,7.14
2022-11-22T03:04:24.976Z,7.22
2022-11-22T03:06:55.724Z,7.35
2022-11-22T03:09:24.307Z,7.43
2022-11-22T03:11:54.668Z,7.45
2022-11-22T03:14:23.067Z,7.52
2022-11-22T03:16:51.760Z,7.29
2022-11-22T03:19:20.140Z,7.37
2022-11-22T03:21:48.195Z,7.32
2022-11-22T03:24:16.551Z,7.29
2022-11-22T03:26:48.066Z,7.28
2022-11-22T03:29:17.662Z,7.38
2022-11-22T03:31:45.659Z,7.47
2022-11-22T03:34:14.012Z,7.28
2022-11-22T03:36:41.947Z,7.20
2022-11-22T03:39:10.629Z,7.25
2022-11-22T03:41:38.539Z,7.14
2022-11-22T03:44:06.816Z,7.12
2022-11-22T03:46:36.431Z,7.24
2022-11-22T03:49:05.018Z,7.11
2022-11-22T03:51:33.012Z,7.14
2022-11-22T03:54:01.352Z,7.31
2022-11-22T03:56:29.341Z,7.39
2022-11-22T03:58:57.261Z,7.30
2022-11-22T04:01:25.242Z,7.32
2022-11-22T04:03:54.595Z,7.24
2022-11-22T04:06:22.645Z,7.18
2022-11-22T04:08:51.195Z,7.19
2022-11-22T04:11:19.371Z,7.14
2022-11-22T04:14:04.986Z,7.18
2022-11-22T04:16:33.036Z,7.33
2022-11-22T04:19:02.301Z,7.34
2022-11-22T04:21:34.788Z,7.37
2022-11-22T04:24:21.051Z,7.29
2022-11-22T04:26:49.444Z,7.18
2022-11-22T04:29:17.397Z,7.30
2022-11-22T04:32:02.742Z,7.46
2022-11-22T04:34:32.123Z,7.51
2022-11-22T04:37:00.801Z,7.51
2022-11-22T04:39:29.328Z,7.69
2022-11-22T04:42:12.500Z,7.82
2022-11-22T04:44:43.716Z,7.76
2022-11-22T04:47:13.507Z,7.71
2022-11-22T04:49:43.391Z,7.58
2022-11-22T04:52:28.973Z,7.61
2022-11-22T04:54:57.001Z,7.60
2022-11-22T04:57:24.968Z,7.61
2022-11-22T04:59:52.886Z,7.62
2022-11-22T05:02:20.935Z,7.68
2022-11-22T05:04:50.998Z,7.81
2022-11-22T05:07:19.223Z,7.94
2022-11-22T05:09:48.204Z,8.04
2022-11-22T05:12:16.135Z,8.03
2022-11-22T05:14:44.131Z,8.07
2022-11-22T05:17:13.665Z,7.72
2022-11-22T05:19:47.809Z,7.60
2022-11-22T05:22:38.608Z,7.69
2022-11-22T05:25:07.508Z,7.77
2022-11-22T05:27:35.477Z,7.77
2022-11-22T05:30:03.490Z,7.73
2022-11-22T05:32:32.166Z,7.44
2022-11-22T05:35:00.572Z,7.09
2022-11-22T05:37:32.518Z,7.29
2022-11-22T05:40:03.080Z,7.05
2022-11-22T05:42:30.985Z,7.14
2022-11-22T05:44:58.895Z,7.30
2022-11-22T05:47:26.829Z,7.11
2022-11-22T05:49:57.300Z,6.83
2022-11-22T05:52:25.447Z,6.98
2022-11-22T05:54:54.823Z,7.20
2022-11-22T05:57:22.804Z,7.06
2022-11-22T05:59:50.751Z,7.02
2022-11-22T06:02:18.984Z,7.02
2022-11-22T06:04:47.027Z,7.16
2022-11-22T06:07:15.159Z,7.22
2022-11-22T06:09:44.158Z,7.32
2022-11-22T06:12:13.691Z,7.38
2022-11-22T06:14:43.530Z,7.43
2022-11-22T06:17:11.899Z,7.23
2022-11-22T06:19:39.793Z,7.33
2022-11-22T06:22:07.711Z,7.39
2022-11-22T06:24:35.987Z,7.59
2022-11-22T06:27:04.081Z,7.51
2022-11-22T06:29:33.469Z,7.42
2022-11-22T06:32:03.724Z,7.58
2022-11-22T06:34:34.308Z,7.52
2022-11-22T06:37:02.236Z,7.54
2022-11-22T06:39:30.272Z,7.50
2022-11-22T06:41:58.310Z,7.60
2022-11-22T06:44:26.306Z,7.54
2022-11-22T06:46:57.656Z,7.58
2022-11-22T06:49:25.991Z,7.49
2022-11-22T06:51:54.040Z,7.56
2022-11-22T06:54:22.040Z,7.52
2022-11-22T06:56:50.025Z,7.46
2022-11-22T06:59:18.008Z,7.65
2022-11-22T07:01:47.198Z,7.55
2022-11-22T07:04:16.742Z,7.58
2022-11-22T07:06:44.741Z,7.55
2022-11-22T07:09:15.162Z,7.48
2022-11-22T07:11:43.374Z,7.38
2022-11-22T07:14:11.378Z,7.60
2022-11-22T07:16:39.732Z,7.70
2022-11-22T07:19:08.551Z,7.76
2022-11-22T07:21:38.303Z,7.83
2022-11-22T07:24:07.876Z,7.93
2022-11-22T07:26:35.990Z,8.06
2022-11-22T07:29:04.175Z,8.00
2022-11-22T07:31:32.656Z,8.04
2022-11-22T07:34:01.071Z,8.04
2022-11-22T07:36:30.394Z,8.01
2022-11-22T07:38:59.899Z,7.87
2022-11-22T07:41:27.907Z,7.92
2022-11-22T07:43:55.979Z,8.06
2022-11-22T07:46:26.467Z,8.18
2022-11-22T07:48:54.557Z,8.11
2022-11-22T07:51:22.928Z,8.26
2022-11-22T07:53:50.859Z,8.34
2022-11-22T07:56:20.263Z,8.38
2022-11-22T07:58:48.714Z,8.43
2022-11-22T08:01:19.092Z,8.52
2022-11-22T08:03:48.015Z,8.67
2022-11-22T08:06:16.894Z,8.63
2022-11-22T08:08:45.003Z,8.65
2022-11-22T08:11:13.534Z,8.50
2022-11-22T08:13:43.969Z,8.57
2022-11-22T08:16:14.142Z,8.72
2022-11-22T08:18:46.719Z,8.69
2022-11-22T08:21:15.876Z,8.64
2022-11-22T08:23:45.316Z,8.74
2022-11-22T08:26:15.342Z,8.78
2022-11-22T08:28:46.372Z,8.90
2022-11-22T08:31:16.226Z,8.92
2022-11-22T08:33:44.522Z,9.09
2022-11-22T08:36:12.662Z,9.27
2022-11-22T08:38:40.656Z,9.32
2022-11-22T08:41:08.815Z,9.32
2022-11-22T08:43:38.335Z,9.29
2022-11-22T08:46:08.412Z,9.24
2022-11-22T08:48:38.156Z,9.18
2022-11-22T08:51:08.094Z,9.09
2022-11-22T08:53:38.217Z,9.01
2022-11-22T08:56:09.801Z,9.07
2022-11-22T08:58:38.378Z,8.98
2022-11-22T09:01:09.989Z,9.26
2022-11-22T09:03:38.885Z,9.25
2022-11-22T09:09:15.036Z,9.22
2022-11-22T09:11:43.802Z,9.06
2022-11-22T09:14:12.195Z,9.01
2022-11-22T09:16:41.729Z,8.76
2022-11-22T09:19:09.862Z,8.85
2022-11-22T09:21:37.827Z,8.90
2022-11-22T09:24:06.933Z,8.96
2022-11-22T09:26:34.948Z,9.04
2022-11-22T09:29:03.169Z,9.15
2022-11-22T09:31:32.379Z,9.36
2022-11-22T09:34:01.951Z,9.31
2022-11-22T09:36:30.959Z,9.09
2022-11-22T09:38:59.596Z,9.08
2022-11-22T09:41:59.594Z,9.09
2022-11-22T09:44:41.073Z,9.13
2022-11-22T09:47:20.992Z,9.05
2022-11-22T09:50:02.016Z,9.21
2022-11-22T09:52:40.161Z,9.29
2022-11-22T09:55:24.427Z,9.67
2022-11-22T09:58:02.261Z,9.90
2022-11-22T10:00:31.444Z,9.88
2022-11-22T10:03:08.785Z,10.10
2022-11-22T10:05:49.534Z,10.56
2022-11-22T10:08:30.299Z,10.61
2022-11-22T10:10:59.924Z,10.94
2022-11-22T10:13:35.350Z,11.17
2022-11-22T10:16:11.438Z,11.41
2022-11-22T10:18:45.313Z,11.76
2022-11-22T10:21:15.780Z,11.86
2022-11-22T10:23:45.755Z,11.82
2022-11-22T10:26:23.310Z,11.91
2022-11-22T10:28:59.986Z,11.91
2022-11-22T10:31:33.500Z,11.91
2022-11-22T10:34:07.686Z,12.00
2022-11-22T10:36:46.837Z,12.11
2022-11-22T10:39:34.704Z,12.10
2022-11-22T10:42:26.012Z,11.92
2022-11-22T10:45:05.819Z,11.24
2022-11-22T10:47:46.934Z,11.11
2022-11-22T10:50:21.359Z,11.29
2022-11-22T10:53:01.802Z,10.97
2022-11-22T10:55:46.460Z,11.38
2022-11-22T10:58:24.682Z,11.54
2022-11-22T11:01:01.242Z,11.86
2022-11-22T11:03:33.321Z,11.69
2022-11-22T11:06:24.430Z,11.95
2022-11-22T11:09:54.982Z,12.01
2022-11-22T11:11:55.208Z,12.06
2022-11-22T11:14:31.345Z,12.30
2022-11-22T11:17:03.715Z,12.15
2022-11-22T11:19:38.280Z,12.40
2022-11-22T11:22:23.257Z,12.52
2022-11-22T11:25:34.066Z,12.63
2022-11-22T11:28:07.095Z,12.51
2022-11-22T11:30:43.704Z,12.34
2022-11-22T11:33:19.786Z,12.08
2022-11-22T11:35:48.368Z,12.04
2022-11-22T11:38:30.792Z,12.14
2022-11-22T11:41:00.269Z,12.17
2022-11-22T11:43:28.727Z,11.86
2022-11-22T11:46:15.859Z,12.12
2022-11-22T11:48:44.752Z,12.42
2022-11-22T11:51:17.591Z,12.53
2022-11-22T11:53:55.087Z,12.69
2022-11-22T11:56:31.820Z,12.58
2022-11-22T11:59:01.401Z,12.62
2022-11-22T12:01:32.215Z,12.45
2022-11-22T12:04:06.919Z,12.73
2022-11-22T12:06:35.535Z,12.82
2022-11-22T12:09:27.054Z,12.48
2022-11-22T12:12:00.053Z,12.67
2022-11-22T12:14:48.830Z,12.63
2022-11-22T12:17:27.105Z,12.75
2022-11-22T12:20:02.830Z,12.64
2022-11-22T12:22:49.348Z,12.71
2022-11-22T12:25:34.394Z,12.77
2022-11-22T12:28:14.419Z,12.84
2022-11-22T12:30:45.518Z,12.86
2022-11-22T12:33:20.360Z,12.91
2022-11-22T12:35:50.915Z,12.44
2022-11-22T12:38:23.922Z,12.22
2022-11-22T12:40:55.577Z,12.27
2022-11-22T12:43:28.863Z,12.23
2022-11-22T12:45:59.453Z,12.02
2022-11-22T12:48:33.196Z,12.20
2022-11-22T12:51:07.927Z,12.67
2022-11-22T12:53:38.318Z,12.88
2022-11-22T12:56:17.934Z,13.14
2022-11-22T12:58:54.308Z,13.57
2022-11-22T13:01:30.498Z,13.61
2022-11-22T13:04:02.760Z,13.30
2022-11-22T13:06:38.245Z,13.46
2022-11-22T13:09:09.204Z,13.43
2022-11-22T13:11:42.698Z,13.20
2022-11-22T13:14:30.597Z,13.06
2022-11-22T13:16:59.120Z,13.18
2022-11-22T13:19:31.417Z,12.96
2022-11-22T13:22:11.422Z,12.84
2022-11-22T13:24:56.375Z,12.95
2022-11-22T13:27:30.695Z,13.03
2022-11-22T13:30:18.069Z,12.90
2022-11-22T13:32:50.455Z,13.12
2022-11-22T13:35:29.303Z,13.02
2022-11-22T13:37:59.176Z,13.22
2022-11-22T13:40:29.980Z,13.24
2022-11-22T13:43:33.054Z,12.82
2022-11-22T13:46:04.560Z,12.73
2022-11-22T13:49:15.509Z,12.98
2022-11-22T13:51:57.007Z,12.93
2022-11-22T13:54:58.213Z,13.11
2022-11-22T13:57:30.038Z,13.38
2022-11-22T14:00:50.451Z,13.48
2022-11-22T14:03:38.614Z,13.01
2022-11-22T14:06:29.763Z,12.93
2022-11-22T14:09:29.504Z,13.07
2022-11-22T14:12:19.208Z,13.15
2022-11-22T14:15:04.364Z,12.96
2022-11-22T14:17:42.021Z,12.82
2022-11-22T14:20:29.851Z,12.80
2022-11-22T14:23:02.641Z,12.77
2022-11-22T14:25:52.067Z,12.73
2022-11-22T14:28:40.263Z,12.60
2022-11-22T14:31:15.764Z,12.69
2022-11-22T14:34:18.500Z,12.64
2022-11-22T14:37:26.508Z,12.67
2022-11-22T14:40:14.955Z,12.45
2022-11-22T14:42:48.325Z,12.40
2022-11-22T14:45:23.358Z,12.27
2022-11-22T14:48:02.442Z,12.24
2022-11-22T14:50:35.033Z,12.31
2022-11-22T14:53:16.846Z,12.25
2022-11-22T14:55:45.435Z,12.36
2022-11-22T14:58:19.109Z,12.42
2022-11-22T15:01:11.506Z,12.18
2022-11-22T15:09:19.629Z,12.24
2022-11-22T15:09:22.950Z,12.43
2022-11-22T15:10:10.823Z,12.48
2022-11-22T15:13:16.256Z,12.46
2022-11-22T15:59:18.464Z,12.18
2022-11-22T16:01:47.983Z,12.02
2022-11-22T16:04:23.606Z,11.94
2022-11-22T16:06:53.030Z,11.92
2022-11-22T16:09:28.161Z,11.75
2022-11-22T16:12:01.502Z,11.88
2022-11-22T16:14:44.999Z,11.95
2022-11-22T16:17:26.056Z,11.85
2022-11-22T16:19:54.778Z,11.85
2022-11-22T16:22:33.467Z,11.94
2022-11-22T16:25:29.767Z,11.76
2022-11-22T16:27:58.049Z,11.73
2022-11-22T16:30:26.060Z,11.88
2022-11-22T16:32:56.634Z,11.80
2022-11-22T16:35:31.708Z,11.79
2022-11-22T16:38:00.346Z,11.95
2022-11-22T16:40:28.286Z,11.67
2022-11-22T16:42:56.362Z,11.67
2022-11-22T16:45:24.444Z,11.85
2022-11-22T16:48:09.884Z,11.76
2022-11-22T16:50:44.719Z,11.69
2022-11-22T16:53:16.007Z,11.58
2022-11-22T16:55:46.777Z,11.73
2022-11-22T16:58:17.318Z,11.69
2022-11-22T17:00:46.596Z,11.60
2022-11-22T17:03:19.347Z,11.48
2022-11-22T17:05:48.902Z,11.59
2022-11-22T17:08:19.434Z,11.62
2022-11-22T17:10:49.902Z,11.62
2022-11-22T17:13:21.420Z,11.67
2022-11-22T17:15:49.839Z,11.76
2022-11-22T17:18:18.192Z,11.83
2022-11-22T17:20:46.440Z,11.79
2022-11-22T17:23:21.974Z,11.59
2022-11-22T17:25:50.607Z,11.42
2022-11-22T17:28:18.614Z,11.45
2022-11-22T17:30:46.544Z,11.21
2022-11-22T17:33:14.954Z,11.22
2022-11-22T17:35:43.134Z,11.39
2022-11-22T17:38:12.616Z,11.32
2022-11-22T17:40:42.102Z,11.18
2022-11-22T17:43:11.330Z,11.06
2022-11-22T17:45:43.036Z,11.14
2022-11-22T17:48:11.184Z,10.99
2022-11-22T17:50:39.580Z,11.04
2022-11-22T17:53:07.781Z,11.01
2022-11-22T17:56:02.719Z,10.99
2022-11-22T17:58:25.272Z,11.18
2022-11-22T18:00:53.278Z,11.18
2022-11-22T18:03:21.721Z,11.24
2022-11-22T18:05:49.731Z,11.20
2022-11-22T18:08:17.635Z,11.14
2022-11-22T18:10:45.760Z,11.04
2022-11-22T18:13:21.462Z,11.17
2022-11-22T18:15:55.373Z,11.15
2022-11-22T18:18:54.597Z,11.16
2022-11-22T18:21:17.197Z,11.18
2022-11-22T18:23:46.320Z,11.16
2022-11-22T18:26:38.301Z,11.03
2022-11-22T18:31:54.547Z,11.24
2022-11-22T18:34:25.484Z,11.18
2022-11-22T18:36:55.890Z,11.02
2022-11-22T18:39:27.689Z,11.24
2022-11-22T18:41:55.705Z,11.30
2022-11-22T18:44:23.923Z,11.22
2022-11-22T18:46:51.995Z,11.12
2022-11-22T18:49:21.569Z,11.11
2022-11-22T18:51:49.646Z,11.29
2022-11-22T18:54:18.423Z,11.23
2022-11-22T18:56:46.420Z,11.14
2022-11-22T18:59:14.619Z,11.17
2022-11-22T19:01:43.244Z,11.20
2022-11-22T19:04:12.804Z,11.37
2022-11-22T19:06:42.283Z,11.23
2022-11-22T19:09:11.235Z,10.97
2022-11-22T19:11:41.352Z,10.95
2022-11-22T19:14:09.972Z,11.08
2022-11-22T19:16:38.226Z,11.27
2022-11-22T19:19:08.148Z,11.48
2022-11-22T19:21:36.207Z,11.63
2022-11-22T19:24:06.919Z,11.61
2022-11-22T19:26:35.041Z,11.63
2022-11-22T19:29:04.917Z,11.46
2022-11-22T19:31:36.934Z,11.65
2022-11-22T19:34:05.139Z,11.70
2022-11-22T19:36:34.562Z,11.68
2022-11-22T19:39:05.988Z,11.83
2022-11-22T19:41:35.002Z,11.65
2022-11-22T19:44:05.567Z,11.73
2022-11-22T19:46:33.955Z,11.70
2022-11-22T19:49:02.200Z,11.64
2022-11-22T19:51:32.105Z,11.63
2022-11-22T19:54:04.257Z,11.59
2022-11-22T19:56:36.399Z,11.45
2022-11-22T19:59:06.508Z,11.42
2022-11-22T20:01:36.380Z,11.49
2022-11-22T20:04:06.690Z,11.37
2022-11-22T20:06:36.544Z,11.10
2022-11-22T20:09:06.475Z,11.03
2022-11-22T20:11:39.680Z,10.90
2022-11-22T20:14:09.590Z,10.81
2022-11-22T20:16:41.261Z,10.79
2022-11-22T20:19:09.740Z,10.92
2022-11-22T20:21:38.562Z,11.02
2022-11-22T20:24:07.834Z,11.04
2022-11-22T20:26:37.806Z,11.14
2022-11-22T20:29:08.856Z,11.10
2022-11-22T20:31:45.685Z,10.97
2022-11-22T20:34:15.132Z,10.95
2022-11-22T20:36:43.901Z,11.00
2022-11-22T20:39:14.301Z,11.09
2022-11-22T20:41:43.689Z,11.25
2022-11-22T20:44:15.210Z,11.28
2022-11-22T20:46:44.607Z,11.29
2022-11-22T20:49:12.926Z,11.39
2022-11-22T20:51:41.631Z,11.61
2022-11-22T20:54:10.483Z,11.81
2022-11-22T20:56:39.588Z,12.03
2022-11-22T20:59:09.186Z,12.18
2022-11-22T21:01:38.000Z,12.28
2022-11-22T21:04:06.516Z,12.57
2022-11-22T21:06:35.164Z,12.69
2022-11-22T21:09:03.457Z,12.62
2022-11-22T21:11:32.177Z,12.67
2022-11-22T21:14:00.487Z,12.69
2022-11-22T21:16:30.954Z,12.74
2022-11-22T21:19:01.660Z,12.84
2022-11-22T21:21:30.936Z,12.86
2022-11-22T21:24:00.991Z,12.88
2022-11-22T21:26:29.703Z,12.93
2022-11-22T21:28:59.393Z,12.97
2022-11-22T21:31:29.311Z,12.91
2022-11-22T21:33:57.568Z,12.96
2022-11-22T21:36:25.812Z,13.14
2022-11-22T21:38:54.242Z,13.26
2022-11-22T21:41:39.222Z,13.27
2022-11-22T21:44:08.464Z,13.22
2022-11-22T21:46:38.150Z,13.16
2022-11-22T21:49:06.338Z,13.17
2022-11-22T21:51:34.576Z,13.19
2022-11-22T21:54:05.707Z,13.19
2022-11-22T21:56:34.060Z,13.19
2022-11-22T21:59:02.440Z,13.10
2022-11-22T22:01:30.459Z,13.26
2022-11-22T22:03:59.975Z,13.17
2022-11-22T22:06:27.911Z,13.14
2022-11-22T22:08:56.417Z,13.20
2022-11-22T22:11:24.522Z,13.19
2022-11-22T22:13:54.171Z,13.30
2022-11-22T22:16:25.869Z,13.17
2022-11-22T22:18:54.175Z,13.32
2022-11-22T22:21:23.600Z,13.26
2022-11-22T22:23:51.725Z,13.17
2022-11-22T22:26:19.837Z,13.18
2022-11-22T22:28:48.070Z,13.21
2022-11-22T22:31:21.775Z,13.21
2022-11-22T22:33:51.616Z,13.01
2022-11-22T22:36:20.612Z,13.11
2022-11-22T22:38:50.398Z,13.21
2022-11-22T22:41:19.014Z,13.05
2022-11-22T22:43:48.788Z,12.97
2022-11-22T22:46:20.489Z,12.90
2022-11-22T22:48:49.773Z,13.01
2022-11-22T22:51:19.097Z,13.04
2022-11-22T22:53:48.132Z,13.16
2022-11-22T22:56:19.994Z,13.00
2022-11-22T22:58:48.467Z,12.96
2022-11-22T23:01:18.536Z,12.98
2022-11-22T23:03:51.551Z,13.08
2022-11-22T23:06:19.936Z,13.01
2022-11-22T23:08:49.905Z,12.94
2022-11-22T23:11:22.977Z,13.01
2022-11-22T23:13:50.972Z,12.91
2022-11-22T23:16:19.299Z,12.77
2022-11-22T23:18:47.193Z,12.66
2022-11-22T23:21:16.642Z,12.57
2022-11-22T23:23:44.770Z,12.52
2022-11-22T23:26:13.943Z,12.48
2022-11-22T23:28:43.205Z,12.40
2022-11-22T23:31:13.565Z,12.55
2022-11-22T23:33:45.325Z,12.58
2022-11-22T23:36:15.307Z,12.58
2022-11-22T23:38:44.029Z,12.69
2022-11-22T23:41:14.025Z,12.53
2022-11-22T23:43:44.501Z,12.60
2022-11-22T23:46:16.124Z,12.62
2022-11-22T23:48:44.521Z,12.67
2022-11-22T23:51:13.071Z,12.58
2022-11-22T23:53:41.679Z,12.67
2022-11-22T23:56:11.915Z,12.73
2022-11-22T23:58:39.943Z,12.69
